Time;durP1;ratioP1;P1;durP2;ratioP2;P2;SDS_P1;SDS_P2;PMS_P1;PMS_P2;Temp;Humidity;BMP_temperature;BMP_pressure;BME280_temperature;BME280_humidity;BME280_pressure;Samples;Min_cycle;Max_cycle;Signal;HPM_P1;HPM_P2
2022/01/26 00:06:42;;;;;;;94.13;30.27;;;4.40;99.90;;;;;;5032959;28;20057;-55
2022/01/26 00:09:09;;;;;;;96.13;28.95;;;4.40;99.90;;;;;;5032642;28;20060;-56
2022/01/26 00:11:36;;;;;;;88.68;27.85;;;4.40;99.90;;;;;;5032658;28;20029;-56
2022/01/26 00:14:04;;;;;;;98.13;28.90;;;4.40;99.90;;;;;;5031465;28;20044;-54
2022/01/26 00:16:39;;;;;;;88.95;28.30;;;4.30;99.90;;;;;;5032405;28;20056;-57
2022/01/26 00:19:06;;;;;;;90.00;27.95;;;4.40;99.90;;;;;;5032069;28;20094;-55
2022/01/26 00:21:40;;;;;;;79.88;26.42;;;4.30;99.90;;;;;;5031906;28;20026;-56
2022/01/26 00:27:04;;;;;;;74.93;24.15;;;4.30;99.90;;;;;;5032079;28;20074;-57
2022/01/26 00:29:28;;;;;;;80.45;23.95;;;4.30;99.90;;;;;;5032114;28;20068;-56
2022/01/26 00:33:06;;;;;;;74.55;25.20;;;4.30;99.90;;;;;;5031232;28;20041;-57
2022/01/26 00:40:30;;;;;;;78.93;24.88;;;4.30;99.90;;;;;;5032095;28;20398;-59
2022/01/26 00:43:01;;;;;;;77.25;24.23;;;4.30;99.90;;;;;;5031041;28;20029;-58
2022/01/26 00:45:33;;;;;;;86.38;25.02;;;4.20;99.90;;;;;;5032053;28;20021;-58
2022/01/26 00:48:03;;;;;;;72.53;23.50;;;4.20;99.90;;;;;;5031627;28;20104;-57
2022/01/26 00:50:30;;;;;;;82.10;25.98;;;4.20;99.90;;;;;;5031570;28;20502;-55
2022/01/26 00:52:56;;;;;;;76.70;24.80;;;4.20;99.90;;;;;;5031045;28;20030;-56
2022/01/26 00:55:21;;;;;;;81.75;25.40;;;4.20;99.90;;;;;;5031680;28;20689;-58
2022/01/26 00:57:48;;;;;;;84.13;26.00;;;4.20;99.90;;;;;;5031553;28;20033;-54
2022/01/26 01:00:17;;;;;;;81.75;25.73;;;4.10;99.90;;;;;;5031660;28;20029;-54
2022/01/26 01:02:43;;;;;;;87.93;26.67;;;4.10;99.90;;;;;;5030812;28;20090;-58
2022/01/26 01:05:23;;;;;;;93.88;28.33;;;4.10;99.90;;;;;;5031522;28;20559;-57
2022/01/26 01:07:53;;;;;;;85.15;25.95;;;4.20;99.90;;;;;;5031220;28;20170;-56
2022/01/26 01:10:22;;;;;;;76.97;23.55;;;4.20;99.90;;;;;;5031170;28;20061;-57
2022/01/26 01:12:50;;;;;;;85.68;26.25;;;4.10;99.90;;;;;;5030243;28;20041;-57
2022/01/26 01:15:16;;;;;;;85.93;27.65;;;4.10;99.90;;;;;;5031641;28;20033;-58
2022/01/26 01:17:50;;;;;;;83.00;25.80;;;4.10;99.90;;;;;;5030985;28;20164;-57
2022/01/26 01:20:51;;;;;;;79.30;24.13;;;4.10;99.90;;;;;;5031163;28;20022;-54
2022/01/26 01:30:50;;;;;;;80.85;25.77;;;4.10;99.90;;;;;;5030714;28;20349;-57
2022/01/26 01:33:20;;;;;;;77.88;25.63;;;4.10;99.90;;;;;;5030261;28;20406;-61
2022/01/26 01:35:47;;;;;;;83.95;26.80;;;4.10;99.90;;;;;;5030486;28;20060;-60
2022/01/26 01:38:16;;;;;;;83.45;25.80;;;4.10;99.90;;;;;;5030872;28;20083;-55
2022/01/26 01:40:45;;;;;;;85.57;23.92;;;4.10;99.90;;;;;;5030372;28;20049;-56
2022/01/26 01:43:11;;;;;;;83.88;24.88;;;4.10;99.90;;;;;;5030094;28;20026;-58
2022/01/26 01:45:45;;;;;;;88.50;27.38;;;4.10;99.90;;;;;;5030381;28;20025;-57
2022/01/26 01:48:17;;;;;;;85.45;24.83;;;4.10;99.90;;;;;;5030853;28;20045;-56
2022/01/26 01:50:43;;;;;;;;;;;4.10;99.90;;;;;;5030774;28;20025;-57
2022/01/26 01:53:10;;;;;;;90.47;26.42;;;4.10;99.90;;;;;;5029932;28;19909;-58
2022/01/26 01:55:43;;;;;;;94.20;28.38;;;4.00;99.90;;;;;;5030441;28;20064;-56
2022/01/26 01:58:09;;;;;;;92.63;27.45;;;4.00;99.90;;;;;;5030045;28;20045;-56
2022/01/26 02:00:37;;;;;;;84.35;25.08;;;4.00;99.90;;;;;;5030155;28;20021;-53
2022/01/26 02:03:03;;;;;;;97.18;27.33;;;4.00;99.90;;;;;;5029218;28;20025;-58
2022/01/26 02:05:29;;;;;;;86.65;27.13;;;4.00;99.90;;;;;;5030141;28;20440;-57
2022/01/26 02:07:55;;;;;;;84.60;26.65;;;4.00;99.90;;;;;;5029942;28;20112;-57
2022/01/26 02:10:23;;;;;;;87.97;27.08;;;4.00;99.90;;;;;;5030408;28;20025;-59
2022/01/26 02:12:53;;;;;;;88.07;27.65;;;4.10;99.90;;;;;;5028868;28;20041;-55
2022/01/26 02:15:25;;;;;;;84.47;27.23;;;4.00;99.90;;;;;;5029993;28;20025;-56
2022/01/26 02:51:44;;;;;;;88.50;27.23;;;4.10;99.90;;;;;;5029886;28;20060;-57
2022/01/26 02:53:40;;;;;;;87.90;27.23;;;4.10;99.90;;;;;;5019637;28;20045;-56
2022/01/26 02:56:12;;;;;;;95.93;31.17;;;4.10;99.90;;;;;;5029307;28;20030;-54
2022/01/26 03:04:33;;;;;;;97.45;29.73;;;4.10;99.90;;;;;;5031025;28;20378;-53
2022/01/26 03:09:58;;;;;;;94.75;29.20;;;4.00;99.90;;;;;;5029441;28;20055;-54
2022/01/26 03:12:20;;;;;;;105.72;32.05;;;4.00;99.90;;;;;;5028528;28;20076;-54
2022/01/26 03:14:51;;;;;;;109.22;32.72;;;4.00;99.90;;;;;;5028989;28;20033;-57
2022/01/26 03:17:56;;;;;;;104.70;32.35;;;4.00;99.90;;;;;;5029343;28;20484;-56
2022/01/26 03:20:20;;;;;;;113.43;34.17;;;4.00;99.90;;;;;;5029023;28;20029;-53
2022/01/26 03:33:46;;;;;;;106.45;34.38;;;4.00;99.90;;;;;;5028707;28;20087;-54
2022/01/26 03:35:57;;;;;;;103.78;34.78;;;4.00;99.90;;;;;;5029183;28;20034;-57
2022/01/26 03:38:44;;;;;;;107.20;34.47;;;4.00;99.90;;;;;;5033239;28;20030;-54
2022/01/26 03:43:37;;;;;;;114.45;33.85;;;4.00;99.90;;;;;;5032676;28;20041;-54
2022/01/26 03:46:03;;;;;;;109.78;31.70;;;4.00;99.90;;;;;;5015009;28;20037;-55
2022/01/26 03:48:29;;;;;;;99.53;32.83;;;3.90;99.90;;;;;;5032982;28;20369;-56
2022/01/26 03:50:54;;;;;;;107.35;34.80;;;3.90;99.90;;;;;;5032219;28;20079;-53
2022/01/26 03:53:20;;;;;;;101.53;30.60;;;4.00;99.90;;;;;;5032320;28;20033;-53
2022/01/26 03:55:45;;;;;;;103.82;32.33;;;3.90;99.90;;;;;;4998343;28;20022;-57
2022/01/26 03:58:11;;;;;;;98.97;31.70;;;3.90;99.90;;;;;;5032796;28;20145;-51
2022/01/26 04:00:37;;;;;;;102.15;32.17;;;3.90;99.90;;;;;;5032700;28;20319;-54
2022/01/26 04:03:03;;;;;;;102.20;30.55;;;3.90;99.90;;;;;;5031714;28;20033;-52
2022/01/26 04:05:29;;;;;;;100.15;31.40;;;3.90;99.90;;;;;;5033055;28;20032;-55
2022/01/26 04:08:00;;;;;;;100.78;31.63;;;3.90;99.90;;;;;;5032329;28;20045;-53
2022/01/26 04:10:50;;;;;;;103.63;31.57;;;3.90;99.90;;;;;;5032416;28;20510;-53
2022/01/26 04:13:16;;;;;;;94.20;30.45;;;3.90;99.90;;;;;;5031645;28;20033;-54
2022/01/26 04:15:42;;;;;;;98.60;29.60;;;3.90;99.90;;;;;;5032699;28;20036;-57
2022/01/26 04:18:12;;;;;;;100.25;31.73;;;3.90;99.90;;;;;;5032579;28;20427;-53
2022/01/26 04:20:42;;;;;;;84.93;29.20;;;3.90;99.90;;;;;;5032263;28;20017;-54
2022/01/26 04:23:17;;;;;;;99.60;31.55;;;3.90;99.90;;;;;;5031409;28;20483;-56
2022/01/26 04:25:44;;;;;;;93.38;31.15;;;3.90;99.90;;;;;;5032140;28;20402;-56
2022/01/26 04:28:16;;;;;;;93.00;29.58;;;3.90;99.90;;;;;;5032179;28;20030;-57
2022/01/26 04:30:42;;;;;;;88.85;28.00;;;3.90;99.90;;;;;;5032140;28;20434;-57
2022/01/26 04:33:08;;;;;;;82.15;26.70;;;4.00;99.90;;;;;;5031618;28;20376;-56
2022/01/26 04:35:34;;;;;;;82.38;27.67;;;3.90;99.90;;;;;;5031704;28;20065;-56
2022/01/26 04:40:35;;;;;;;88.75;29.02;;;3.90;99.90;;;;;;5031810;28;20423;-57
2022/01/26 04:43:05;;;;;;;81.25;26.08;;;3.90;99.90;;;;;;5030890;28;20167;-54
2022/01/26 04:45:31;;;;;;;79.50;24.67;;;3.90;99.90;;;;;;5032094;28;20064;-57
2022/01/26 04:47:57;;;;;;;67.80;24.02;;;3.80;99.90;;;;;;5013228;28;20495;-53
2022/01/26 04:50:22;;;;;;;73.07;24.95;;;3.90;99.90;;;;;;5031892;28;20026;-53
2022/01/26 04:52:48;;;;;;;77.47;25.08;;;3.90;99.90;;;;;;5030943;28;20108;-56
2022/01/26 04:55:14;;;;;;;70.80;23.75;;;3.80;99.90;;;;;;5031550;28;20034;-55
2022/01/26 04:57:40;;;;;;;72.55;20.13;;;3.90;99.90;;;;;;5031698;28;20361;-56
2022/01/26 05:00:09;;;;;;;64.88;21.40;;;3.90;99.90;;;;;;5031168;28;20040;-55
2022/01/26 05:02:35;;;;;;;59.33;21.48;;;3.90;99.90;;;;;;5031258;28;20021;-56
2022/01/26 05:05:01;;;;;;;66.47;21.30;;;3.80;99.90;;;;;;5031511;28;20132;-56
2022/01/26 05:07:27;;;;;;;63.33;21.63;;;3.80;99.90;;;;;;5032054;28;20034;-55
2022/01/26 05:09:52;;;;;;;75.40;22.92;;;3.80;99.90;;;;;;5031188;28;20104;-58
2022/01/26 05:12:19;;;;;;;61.20;20.67;;;3.80;99.90;;;;;;5030875;28;20404;-57
2022/01/26 05:14:46;;;;;;;61.97;21.13;;;3.80;99.90;;;;;;5031527;28;20511;-52
2022/01/26 05:17:13;;;;;;;70.35;21.55;;;3.80;99.90;;;;;;5031852;28;20026;-52
2022/01/26 05:19:39;;;;;;;60.38;20.77;;;3.90;99.90;;;;;;5031525;28;20025;-57
2022/01/26 05:22:05;;;;;;;67.53;22.85;;;3.80;99.90;;;;;;5031113;28;20333;-53
2022/01/26 05:24:31;;;;;;;66.50;22.38;;;3.90;99.90;;;;;;5031876;28;20063;-52
2022/01/26 05:26:57;;;;;;;71.18;22.45;;;3.80;99.90;;;;;;5031631;28;20030;-56
2022/01/26 05:29:22;;;;;;;65.07;21.75;;;3.80;99.90;;;;;;5031414;28;20041;-57
2022/01/26 05:31:48;;;;;;;72.68;23.15;;;3.90;99.90;;;;;;5030672;28;20487;-56
2022/01/26 05:34:14;;;;;;;70.93;21.67;;;3.90;99.90;;;;;;5031465;28;20048;-54
2022/01/26 05:36:39;;;;;;;62.70;20.70;;;3.80;99.90;;;;;;5031469;28;20041;-57
2022/01/26 05:39:05;;;;;;;63.92;22.25;;;3.90;99.90;;;;;;5030880;28;20026;-56
2022/01/26 05:41:31;;;;;;;68.55;21.55;;;3.90;99.90;;;;;;5031047;28;20036;-57
2022/01/26 05:43:57;;;;;;;65.70;22.35;;;3.80;99.90;;;;;;5030444;28;20045;-54
2022/01/26 05:46:31;;;;;;;69.70;21.98;;;3.80;99.90;;;;;;5031347;28;20131;-57
2022/01/26 05:48:56;;;;;;;64.45;22.48;;;3.80;99.90;;;;;;5013112;28;20025;-57
2022/01/26 05:51:22;;;;;;;62.10;21.42;;;3.80;99.90;;;;;;5031021;28;20112;-56
2022/01/26 05:53:48;;;;;;;60.17;21.02;;;3.80;99.90;;;;;;5030377;28;20037;-54
2022/01/26 05:56:14;;;;;;;64.82;21.27;;;3.80;99.90;;;;;;5031366;28;20021;-56
2022/01/26 05:58:40;;;;;;;66.55;22.17;;;3.80;99.90;;;;;;5030232;28;20495;-55
2022/01/26 06:01:06;;;;;;;67.75;22.58;;;3.80;99.90;;;;;;5030490;28;20033;-55
2022/01/26 06:03:32;;;;;;;61.15;21.77;;;3.80;99.90;;;;;;5030129;28;20036;-57
2022/01/26 06:05:58;;;;;;;63.95;21.52;;;3.80;99.90;;;;;;5030407;28;20033;-56
2022/01/26 06:08:25;;;;;;;67.25;21.70;;;3.80;99.90;;;;;;5030968;28;20113;-55
2022/01/26 06:10:51;;;;;;;67.35;22.25;;;3.80;99.90;;;;;;5030778;28;20052;-54
2022/01/26 06:13:17;;;;;;;65.35;21.65;;;3.80;99.90;;;;;;5030504;28;20030;-54
2022/01/26 06:15:43;;;;;;;64.57;22.00;;;3.80;99.90;;;;;;5030157;28;20029;-54
2022/01/26 06:18:10;;;;;;;65.30;22.35;;;3.80;99.90;;;;;;5029784;28;20021;-55
2022/01/26 06:20:36;;;;;;;66.30;23.13;;;3.80;99.90;;;;;;5030037;28;20025;-57
2022/01/26 06:23:03;;;;;;;79.15;23.80;;;3.80;99.90;;;;;;5029337;28;20040;-55
2022/01/26 06:25:30;;;;;;;67.53;22.38;;;3.80;99.90;;;;;;5030010;28;20476;-56
2022/01/26 06:27:58;;;;;;;70.70;23.90;;;3.80;99.90;;;;;;5029933;28;20045;-55
2022/01/26 06:30:24;;;;;;;66.50;22.40;;;3.80;99.90;;;;;;5030093;28;20112;-55
2022/01/26 06:32:50;;;;;;;66.40;22.23;;;3.80;99.90;;;;;;5028799;28;20037;-57
2022/01/26 06:35:17;;;;;;;69.35;23.83;;;3.80;99.90;;;;;;5030089;28;20495;-55
2022/01/26 06:37:44;;;;;;;66.07;23.30;;;3.80;99.90;;;;;;5029608;28;20033;-56
2022/01/26 06:40:10;;;;;;;74.03;24.30;;;3.70;99.90;;;;;;5029378;28;20037;-55
2022/01/26 06:42:49;;;;;;;74.50;23.65;;;3.80;99.90;;;;;;5029800;28;20388;-55
2022/01/26 06:45:23;;;;;;;74.35;24.23;;;3.70;99.90;;;;;;5011783;28;20029;-53
2022/01/26 06:47:57;;;;;;;64.47;22.02;;;3.70;99.90;;;;;;5029106;28;20030;-58
2022/01/26 06:50:23;;;;;;;68.65;22.98;;;3.70;99.90;;;;;;5029656;28;20450;-58
2022/01/26 06:52:48;;;;;;;70.18;23.48;;;3.70;99.90;;;;;;5028333;28;20112;-56
2022/01/26 06:55:19;;;;;;;73.75;24.77;;;3.70;99.90;;;;;;5029279;28;20033;-57
2022/01/26 06:57:44;;;;;;;70.53;24.02;;;3.70;99.90;;;;;;5029240;28;20053;-57
2022/01/26 07:00:11;;;;;;;70.35;23.17;;;3.70;99.90;;;;;;5029165;28;20156;-56
2022/01/26 07:02:37;;;;;;;74.53;23.80;;;3.70;99.90;;;;;;5028548;28;20027;-56
2022/01/26 07:05:04;;;;;;;67.45;22.98;;;3.70;99.90;;;;;;5028628;28;20025;-53
2022/01/26 07:07:29;;;;;;;77.18;24.42;;;3.70;99.90;;;;;;5029475;28;20056;-56
2022/01/26 07:09:55;;;;;;;67.03;24.73;;;3.70;99.90;;;;;;5029715;28;20057;-57
2022/01/26 07:12:20;;;;;;;63.75;22.55;;;3.70;99.90;;;;;;5032981;28;20446;-56
2022/01/26 07:22:41;;;;;;;68.85;22.75;;;3.70;99.90;;;;;;5010125;28;20026;-57
2022/01/26 07:25:07;;;;;;;71.75;23.38;;;3.70;99.90;;;;;;5021697;28;20033;-58
2022/01/26 07:27:33;;;;;;;73.53;25.02;;;3.60;99.90;;;;;;5030991;28;20520;-55
2022/01/26 07:30:00;;;;;;;70.40;25.40;;;3.70;99.90;;;;;;5012711;28;20030;-51
2022/01/26 07:32:28;;;;;;;67.50;23.63;;;3.70;99.90;;;;;;5011994;28;20385;-51
2022/01/26 07:34:54;;;;;;;74.18;23.95;;;3.80;99.90;;;;;;5021070;28;20548;-55
2022/01/26 07:37:21;;;;;;;65.22;22.00;;;3.80;99.90;;;;;;5012920;28;20137;-54
2022/01/26 07:40:00;;;;;;;71.40;23.65;;;3.70;99.90;;;;;;5021356;28;20076;-64
2022/01/26 07:42:26;;;;;;;65.25;22.77;;;3.70;99.90;;;;;;5029508;28;20038;-56
2022/01/26 07:44:52;;;;;;;72.57;22.42;;;3.70;99.90;;;;;;5022254;28;20033;-63
2022/01/26 07:47:17;;;;;;;72.35;23.67;;;3.60;99.90;;;;;;5022481;28;20473;-59
2022/01/26 07:49:43;;;;;;;61.50;21.17;;;3.70;99.90;;;;;;5024952;28;20053;-61
2022/01/26 07:52:09;;;;;;;66.20;22.77;;;3.70;99.90;;;;;;5023612;28;20042;-55
2022/01/26 07:54:34;;;;;;;65.90;22.88;;;3.70;99.90;;;;;;5021748;28;20104;-60
2022/01/26 07:57:01;;;;;;;68.28;24.42;;;3.70;99.90;;;;;;4977203;28;20153;-55
2022/01/26 07:59:27;;;;;;;77.03;25.02;;;3.70;99.90;;;;;;5023913;28;20038;-55
2022/01/26 08:01:53;;;;;;;73.03;24.38;;;3.70;99.90;;;;;;4998246;28;20088;-57
2022/01/26 08:04:19;;;;;;;72.20;25.50;;;3.70;99.90;;;;;;5022595;28;20149;-55
2022/01/26 08:06:44;;;;;;;68.93;23.83;;;3.70;99.90;;;;;;5012221;28;20460;-55
2022/01/26 08:09:11;;;;;;;76.32;25.42;;;3.70;99.90;;;;;;5011935;28;20087;-66
2022/01/26 08:11:37;;;;;;;74.60;24.33;;;3.70;99.90;;;;;;5015453;28;20402;-55
2022/01/26 08:14:03;;;;;;;68.82;22.80;;;3.60;99.90;;;;;;5005594;28;20564;-59
2022/01/26 08:16:28;;;;;;;72.85;24.92;;;3.60;99.90;;;;;;5022677;28;20076;-56
2022/01/26 08:18:54;;;;;;;77.22;26.08;;;3.50;99.90;;;;;;5023856;28;20025;-53
2022/01/26 08:21:20;;;;;;;79.85;29.30;;;3.50;99.90;;;;;;5013748;28;20108;-55
2022/01/26 08:23:47;;;;;;;71.03;25.38;;;3.50;99.90;;;;;;5004386;28;20017;-57
2022/01/26 08:26:14;;;;;;;75.97;27.83;;;3.50;99.90;;;;;;5007374;28;20054;-55
2022/01/26 08:28:42;;;;;;;83.65;29.77;;;3.50;99.90;;;;;;5006063;28;20022;-56
2022/01/26 08:31:08;;;;;;;80.72;28.80;;;3.50;99.90;;;;;;5006512;28;20484;-53
2022/01/26 08:33:34;;;;;;;79.00;28.02;;;3.50;99.90;;;;;;5019992;28;20034;-54
2022/01/26 08:36:00;;;;;;;83.93;26.42;;;3.50;99.90;;;;;;4989801;28;20443;-57
2022/01/26 08:38:26;;;;;;;88.05;27.95;;;3.50;99.90;;;;;;5021505;28;20026;-54
2022/01/26 08:40:52;;;;;;;70.57;25.27;;;3.50;99.90;;;;;;5027943;28;20513;-55
2022/01/26 08:43:17;;;;;;;79.35;26.27;;;3.40;99.90;;;;;;5021286;28;20080;-58
2022/01/26 08:45:43;;;;;;;70.75;24.13;;;3.40;99.90;;;;;;5029617;28;20124;-53
2022/01/26 08:48:11;;;;;;;76.57;26.52;;;3.50;99.90;;;;;;5020041;28;20229;-57
2022/01/26 08:50:36;;;;;;;73.03;26.00;;;3.40;99.90;;;;;;5015823;28;20452;-58
2022/01/26 08:53:02;;;;;;;83.07;26.55;;;3.40;99.90;;;;;;5018857;28;20043;-57
2022/01/26 08:55:28;;;;;;;82.93;27.52;;;3.40;99.90;;;;;;5022231;28;20029;-56
2022/01/26 08:57:53;;;;;;;83.43;26.88;;;3.40;99.90;;;;;;5025500;28;20042;-55
2022/01/26 09:00:19;;;;;;;86.25;27.38;;;3.40;99.90;;;;;;5025145;28;20117;-54
2022/01/26 09:02:46;;;;;;;81.75;25.80;;;3.40;99.90;;;;;;5014558;28;20465;-54
2022/01/26 09:05:12;;;;;;;85.40;27.70;;;3.40;99.90;;;;;;4980579;28;20073;-54
2022/01/26 09:07:40;;;;;;;86.57;28.33;;;3.40;99.90;;;;;;5014359;28;20064;-57
2022/01/26 09:10:06;;;;;;;89.20;28.30;;;3.50;99.90;;;;;;5022599;28;20042;-55
2022/01/26 09:12:35;;;;;;;76.95;26.17;;;3.50;99.90;;;;;;5023353;28;20483;-53
2022/01/26 09:15:04;;;;;;;88.22;28.48;;;3.50;99.90;;;;;;5022194;28;20484;-53
2022/01/26 09:17:32;;;;;;;89.43;29.23;;;3.40;99.90;;;;;;5022319;28;20029;-54
2022/01/26 09:20:00;;;;;;;86.07;29.52;;;3.50;99.90;;;;;;5025330;28;20309;-56
2022/01/26 09:22:26;;;;;;;84.85;28.48;;;3.50;99.90;;;;;;5020604;28;20479;-53
2022/01/26 09:24:52;;;;;;;86.05;28.17;;;3.50;99.90;;;;;;5030659;28;20296;-51
2022/01/26 09:27:18;;;;;;;80.50;28.10;;;3.50;99.90;;;;;;5019774;28;20128;-56
2022/01/26 09:29:46;;;;;;;89.60;30.60;;;3.50;99.90;;;;;;5010418;28;20395;-55
2022/01/26 09:32:13;;;;;;;83.93;27.65;;;3.50;99.90;;;;;;5017756;28;20124;-54
2022/01/26 09:34:40;;;;;;;80.78;26.25;;;3.50;99.90;;;;;;5023078;28;20116;-56
2022/01/26 09:37:08;;;;;;;87.82;28.02;;;3.50;99.90;;;;;;5022285;28;20406;-52
2022/01/26 09:39:34;;;;;;;88.82;29.80;;;3.60;99.90;;;;;;5022422;28;20099;-55
2022/01/26 09:42:01;;;;;;;93.15;28.48;;;3.50;99.90;;;;;;5021689;28;20484;-52
2022/01/26 09:44:28;;;;;;;94.80;30.10;;;3.50;99.90;;;;;;5022581;28;20041;-55
2022/01/26 09:46:54;;;;;;;92.25;29.95;;;3.50;99.90;;;;;;5005250;28;20037;-54
2022/01/26 09:49:20;;;;;;;93.13;30.42;;;3.60;99.90;;;;;;5022758;28;20040;-56
2022/01/26 09:51:49;;;;;;;103.93;32.90;;;3.50;99.90;;;;;;5012080;28;20025;-58
2022/01/26 09:54:18;;;;;;;86.45;28.13;;;3.50;99.90;;;;;;5020648;28;20499;-56
2022/01/26 09:56:50;;;;;;;88.03;30.02;;;3.50;99.90;;;;;;5007514;28;20048;-57
2022/01/26 09:59:17;;;;;;;90.35;28.88;;;3.60;99.90;;;;;;5018711;28;20018;-54
2022/01/26 10:01:45;;;;;;;101.18;31.73;;;3.50;99.90;;;;;;5015819;28;20040;-56
2022/01/26 10:04:28;;;;;;;87.15;30.15;;;3.50;99.90;;;;;;5013450;28;20073;-58
2022/01/26 10:07:03;;;;;;;92.65;28.98;;;3.50;99.90;;;;;;5017891;28;20061;-59
2022/01/26 10:17:42;;;;;;;86.80;27.58;;;3.60;99.90;;;;;;5020007;28;20033;-60
2022/01/26 10:20:10;;;;;;;82.13;26.80;;;3.60;99.90;;;;;;5009110;28;20033;-58
2022/01/26 10:22:36;;;;;;;94.50;27.50;;;3.50;99.90;;;;;;5015812;28;20025;-59
2022/01/26 10:25:07;;;;;;;84.90;28.80;;;3.50;99.90;;;;;;5025090;28;20510;-58
2022/01/26 10:27:48;;;;;;;89.20;30.17;;;3.50;99.90;;;;;;5018282;28;20099;-59
2022/01/26 10:30:17;;;;;;;88.30;29.02;;;3.50;99.90;;;;;;5018529;28;20040;-60
2022/01/26 10:32:45;;;;;;;92.30;29.00;;;3.60;99.90;;;;;;5022761;28;20026;-59
2022/01/26 10:35:13;;;;;;;88.85;29.00;;;3.60;99.90;;;;;;5008945;28;20512;-59
2022/01/26 10:37:48;;;;;;;91.32;31.45;;;3.60;99.90;;;;;;5021412;28;20033;-60
2022/01/26 10:40:19;;;;;;;95.40;29.80;;;3.50;99.90;;;;;;5019743;28;20120;-57
2022/01/26 10:43:05;;;;;;;102.68;31.52;;;3.50;99.90;;;;;;5021921;28;20388;-59
2022/01/26 10:48:22;;;;;;;102.10;30.50;;;3.50;99.90;;;;;;5023273;28;20034;-58
2022/01/26 10:51:21;;;;;;;87.05;28.35;;;3.50;99.90;;;;;;5014191;28;20036;-59
2022/01/26 10:53:53;;;;;;;91.65;29.10;;;3.40;99.90;;;;;;4991480;28;20108;-53
2022/01/26 10:56:19;;;;;;;86.93;29.27;;;3.40;99.90;;;;;;5022214;28;20029;-59
2022/01/26 10:58:45;;;;;;;96.38;29.27;;;3.40;99.90;;;;;;5016978;28;20542;-58
2022/01/26 11:01:11;;;;;;;106.82;31.75;;;3.40;99.90;;;;;;5017720;28;20527;-59
2022/01/26 11:03:38;;;;;;;103.25;31.52;;;3.30;99.90;;;;;;5026241;28;20112;-59
2022/01/26 11:06:05;;;;;;;96.35;31.20;;;3.30;99.90;;;;;;5017127;28;20341;-57
2022/01/26 11:08:35;;;;;;;93.05;29.95;;;3.30;99.90;;;;;;5027541;28;20048;-57
2022/01/26 11:11:00;;;;;;;111.35;34.38;;;3.30;99.90;;;;;;5013057;28;20034;-54
2022/01/26 11:13:35;;;;;;;102.28;30.90;;;3.20;99.90;;;;;;5009882;28;20037;-58
2022/01/26 11:16:09;;;;;;;104.72;29.90;;;3.20;99.90;;;;;;5011539;28;20173;-59
2022/01/26 11:18:51;;;;;;;116.15;33.70;;;3.20;99.90;;;;;;5016047;28;20018;-59
2022/01/26 11:21:33;;;;;;;106.93;30.58;;;3.20;99.90;;;;;;5013427;28;20499;-58
2022/01/26 11:24:21;;;;;;;98.50;30.30;;;3.20;99.90;;;;;;5014161;28;20444;-57
2022/01/26 11:27:04;;;;;;;108.85;31.90;;;3.10;99.90;;;;;;4989997;28;20037;-57
2022/01/26 11:29:34;;;;;;;108.65;31.83;;;3.10;99.90;;;;;;5020894;28;20156;-58
2022/01/26 11:32:22;;;;;;;107.38;32.60;;;3.10;99.90;;;;;;5023356;28;20073;-59
2022/01/26 11:34:51;;;;;;;113.95;33.38;;;3.10;99.90;;;;;;5010566;28;20029;-59
2022/01/26 11:37:26;;;;;;;117.15;33.50;;;3.20;99.90;;;;;;5012184;28;20029;-57
2022/01/26 11:45:36;;;;;;;114.97;32.83;;;3.20;99.90;;;;;;5017043;28;20034;-57
2022/01/26 11:48:12;;;;;;;107.45;31.13;;;3.20;99.90;;;;;;5019325;28;20060;-57
2022/01/26 11:50:42;;;;;;;111.50;31.90;;;3.20;99.90;;;;;;5029450;28;20041;-58
2022/01/26 11:53:10;;;;;;;111.45;33.25;;;3.20;99.90;;;;;;5029118;28;20104;-60
2022/01/26 11:55:42;;;;;;;102.93;31.50;;;3.10;99.90;;;;;;5017186;28;20026;-58
2022/01/26 11:58:31;;;;;;;105.65;31.15;;;3.10;99.90;;;;;;5012086;28;20326;-57
2022/01/26 12:01:10;;;;;;;112.57;35.00;;;3.20;99.90;;;;;;5015929;28;20125;-56
2022/01/26 12:03:43;;;;;;;107.70;32.15;;;3.20;99.90;;;;;;5014783;28;20483;-58
2022/01/26 12:06:17;;;;;;;114.28;32.30;;;3.20;99.90;;;;;;5006339;28;20475;-58
2022/01/26 12:08:43;;;;;;;131.82;37.78;;;3.20;99.90;;;;;;5019515;28;20032;-56
2022/01/26 12:11:15;;;;;;;124.60;35.60;;;3.20;99.90;;;;;;5028945;28;20026;-59
2022/01/26 12:13:42;;;;;;;119.40;35.15;;;3.20;99.90;;;;;;5019414;28;20480;-56
2022/01/26 12:16:19;;;;;;;123.82;34.47;;;3.30;99.90;;;;;;5028353;28;20462;-54
2022/01/26 12:38:15;;;;;;;143.57;39.00;;;3.20;99.90;;;;;;5023409;28;20087;-58
2022/01/26 12:43:50;;;;;;;138.70;37.25;;;3.20;99.90;;;;;;5023079;28;20032;-57
2022/01/26 12:46:17;;;;;;;139.90;37.35;;;3.20;99.90;;;;;;5010635;28;20164;-56
2022/01/26 12:48:52;;;;;;;138.35;38.20;;;3.20;99.90;;;;;;5013132;28;20041;-56
2022/01/26 12:51:19;;;;;;;133.38;38.25;;;3.10;99.90;;;;;;5019370;28;20025;-57
2022/01/26 12:53:50;;;;;;;148.30;40.28;;;3.10;99.90;;;;;;5022064;28;20032;-53
2022/01/26 12:56:16;;;;;;;130.23;33.63;;;3.10;99.90;;;;;;5026957;28;20128;-56
2022/01/26 12:58:42;;;;;;;136.00;35.75;;;3.10;99.90;;;;;;5020990;28;20128;-59
2022/01/26 13:01:14;;;;;;;141.35;37.90;;;3.10;99.90;;;;;;5015333;28;20022;-56
2022/01/26 13:03:41;;;;;;;;;;;3.10;99.90;;;;;;4991265;28;20023;-55
2022/01/26 13:06:38;;;;;;;136.63;35.75;;;3.10;99.90;;;;;;5018787;28;20367;-55
2022/01/26 13:09:30;;;;;;;125.03;35.33;;;3.10;99.90;;;;;;4992331;28;20053;-54
2022/01/26 13:11:57;;;;;;;141.80;37.43;;;3.10;99.90;;;;;;5013282;28;20030;-53
2022/01/26 13:14:27;;;;;;;134.93;35.88;;;3.10;99.90;;;;;;4995141;28;20033;-56
2022/01/26 13:17:20;;;;;;;130.70;33.15;;;3.10;99.90;;;;;;5022380;28;20026;-57
2022/01/26 13:27:57;;;;;;;138.10;35.53;;;3.20;99.90;;;;;;5024492;28;20026;-58
2022/01/26 13:30:31;;;;;;;133.43;34.85;;;3.20;99.90;;;;;;5026520;28;20144;-56
2022/01/26 13:38:49;;;;;;;135.05;37.15;;;3.30;99.90;;;;;;5019843;28;20030;-58
2022/01/26 13:51:49;;;;;;;125.45;36.50;;;3.30;99.90;;;;;;5019387;28;20018;-57
2022/01/26 13:59:33;;;;;;;126.15;36.15;;;3.30;99.90;;;;;;5025986;28;20457;-54
2022/01/26 14:01:59;;;;;;;142.23;38.70;;;3.30;99.90;;;;;;5021479;28;20423;-54
2022/01/26 14:04:25;;;;;;;133.77;37.15;;;3.30;99.90;;;;;;5026206;28;20069;-57
2022/01/26 14:06:51;;;;;;;125.00;35.25;;;3.30;99.90;;;;;;5012703;28;20080;-54
2022/01/26 14:09:17;;;;;;;139.25;38.17;;;3.30;99.90;;;;;;5011393;28;20708;-57
2022/01/26 14:11:47;;;;;;;148.75;39.20;;;3.30;99.90;;;;;;4995964;28;20084;-58
2022/01/26 14:14:21;;;;;;;139.50;39.38;;;3.30;99.90;;;;;;5004253;28;20041;-55
2022/01/26 14:16:56;;;;;;;139.93;38.97;;;3.30;99.90;;;;;;5025361;28;20060;-57
2022/01/26 14:20:06;;;;;;;144.63;37.75;;;3.30;99.90;;;;;;5020016;28;20484;-59
2022/01/26 14:27:37;;;;;;;139.55;38.72;;;3.30;99.90;;;;;;5024557;28;20133;-57
2022/01/26 14:30:17;;;;;;;137.77;38.28;;;3.40;99.90;;;;;;5006819;28;20543;-57
2022/01/26 14:35:22;;;;;;;136.50;39.97;;;3.40;99.90;;;;;;5007445;28;20179;-57
2022/01/26 15:49:54;;;;;;;129.48;38.30;;;3.70;99.90;;;;;;5020871;28;20451;-54
2022/01/26 15:52:40;;;;;;;127.43;37.78;;;3.70;99.90;;;;;;5031255;28;20117;-54
2022/01/26 16:37:56;;;;;;;141.07;40.25;;;3.90;99.90;;;;;;5013592;28;20056;-60
2022/01/26 17:02:35;;;;;;;148.10;43.85;;;3.90;99.90;;;;;;5022083;28;20060;-54
2022/01/26 17:43:17;;;;;;;148.27;43.30;;;4.20;99.90;;;;;;5003728;28;20065;-60
2022/01/26 17:46:38;;;;;;;150.52;45.03;;;4.20;99.90;;;;;;5029048;28;20036;-58
2022/01/26 18:50:21;;;;;;;133.18;41.50;;;4.40;99.90;;;;;;5023717;28;20182;-59
2022/01/26 18:52:47;;;;;;;141.50;42.58;;;4.50;99.90;;;;;;5020083;28;20025;-59
2022/01/26 18:55:14;;;;;;;135.80;42.70;;;4.50;99.90;;;;;;5026317;28;20075;-59
2022/01/26 18:57:41;;;;;;;136.35;39.97;;;4.50;99.90;;;;;;5021540;28;20032;-52
2022/01/26 19:00:08;;;;;;;132.43;41.33;;;4.40;99.90;;;;;;5013903;28;20448;-51
2022/01/26 19:02:33;;;;;;;131.07;41.67;;;4.50;99.90;;;;;;5020655;28;20025;-50
2022/01/26 19:04:59;;;;;;;148.18;44.13;;;4.50;99.90;;;;;;5028833;28;20058;-55
2022/01/26 19:07:25;;;;;;;129.45;40.63;;;4.50;99.90;;;;;;5016527;28;20499;-49
2022/01/26 19:09:52;;;;;;;130.15;42.10;;;4.50;99.90;;;;;;5023302;28;20034;-54
2022/01/26 19:12:19;;;;;;;127.30;42.00;;;4.50;99.90;;;;;;5017474;28;20030;-56
2022/01/26 19:14:52;;;;;;;135.05;41.47;;;4.50;99.90;;;;;;4991830;28;20411;-50
2022/01/26 19:17:29;;;;;;;127.35;40.97;;;4.50;99.90;;;;;;5017884;28;20101;-49
2022/01/26 19:20:13;;;;;;;139.88;43.55;;;4.50;99.90;;;;;;5008861;28;20575;-49
2022/01/26 19:25:31;;;;;;;133.85;42.30;;;4.60;99.90;;;;;;5020969;28;20042;-49
2022/01/26 19:31:51;;;;;;;124.53;40.58;;;4.60;99.90;;;;;;5011578;28;20044;-53